sensor_id;sensor_type;location;lat;lon;timestamp;temperature;humidity
18777;DHT22;9517;51.174;4.160;2023-03-01T00:01:31;0.70;99.90
18777;DHT22;9517;51.174;4.160;2023-03-01T00:03:59;0.60;99.90
18777;DHT22;9517;51.174;4.160;2023-03-01T00:06:27;0.70;99.90
18777;DHT22;9517;51.174;4.160;2023-03-01T00:08:54;0.60;99.90
18777;DHT22;9517;51.174;4.160;2023-03-01T00:11:22;0.70;99.90
18777;DHT22;9517;51.174;4.160;2023-03-01T00:13:53;0.80;99.90
18777;DHT22;9517;51.174;4.160;2023-03-01T00:16:23;0.70;99.90
18777;DHT22;9517;51.174;4.160;2023-03-01T00:18:51;0.80;99.90
18777;DHT22;9517;51.174;4.160;2023-03-01T00:21:20;0.70;99.90
18777;DHT22;9517;51.174;4.160;2023-03-01T00:23:48;0.60;99.90
18777;DHT22;9517;51.174;4.160;2023-03-01T00:26:16;0.60;99.90
18777;DHT22;9517;51.174;4.160;2023-03-01T00:28:43;0.70;99.90
18777;DHT22;9517;51.174;4.160;2023-03-01T00:31:13;0.80;99.90
18777;DHT22;9517;51.174;4.160;2023-03-01T00:33:42;0.70;99.90
18777;DHT22;9517;51.174;4.160;2023-03-01T00:36:11;0.70;99.90
18777;DHT22;9517;51.174;4.160;2023-03-01T00:38:39;0.70;99.90
18777;DHT22;9517;51.174;4.160;2023-03-01T00:41:09;0.50;99.90
18777;DHT22;9517;51.174;4.160;2023-03-01T00:43:36;0.40;99.90
18777;DHT22;9517;51.174;4.160;2023-03-01T00:46:04;0.30;99.90
18777;DHT22;9517;51.174;4.160;2023-03-01T00:48:33;0.30;99.90
18777;DHT22;9517;51.174;4.160;2023-03-01T00:51:06;0.30;99.90
18777;DHT22;9517;51.174;4.160;2023-03-01T00:53:34;0.20;99.90
18777;DHT22;9517;51.174;4.160;2023-03-01T00:56:01;0.20;99.90
18777;DHT22;9517;51.174;4.160;2023-03-01T00:58:29;0.20;99.90
18777;DHT22;9517;51.174;4.160;2023-03-01T01:00:56;0.30;99.90
18777;DHT22;9517;51.174;4.160;2023-03-01T01:03:23;0.30;99.90
18777;DHT22;9517;51.174;4.160;2023-03-01T01:05:51;0.30;99.90
18777;DHT22;9517;51.174;4.160;2023-03-01T01:08:20;0.30;99.90
18777;DHT22;9517;51.174;4.160;2023-03-01T01:10:47;0.30;99.90
18777;DHT22;9517;51.174;4.160;2023-03-01T01:13:14;0.20;99.90
18777;DHT22;9517;51.174;4.160;2023-03-01T01:15:42;0.20;99.90
18777;DHT22;9517;51.174;4.160;2023-03-01T01:18:12;0.10;99.90
18777;DHT22;9517;51.174;4.160;2023-03-01T01:20:39;0.10;99.90
18777;DHT22;9517;51.174;4.160;2023-03-01T01:23:06;0.10;99.90
18777;DHT22;9517;51.174;4.160;2023-03-01T01:25:36;0.20;99.90
18777;DHT22;9517;51.174;4.160;2023-03-01T01:28:03;0.20;99.90
18777;DHT22;9517;51.174;4.160;2023-03-01T01:30:30;0.20;99.90
18777;DHT22;9517;51.174;4.160;2023-03-01T01:32:57;0.30;99.90
18777;DHT22;9517;51.174;4.160;2023-03-01T01:35:25;0.30;99.90
18777;DHT22;9517;51.174;4.160;2023-03-01T01:37:52;0.20;99.90
18777;DHT22;9517;51.174;4.160;2023-03-01T01:40:19;0.10;99.90
18777;DHT22;9517;51.174;4.160;2023-03-01T01:42:48;0.00;99.90
18777;DHT22;9517;51.174;4.160;2023-03-01T01:45:32;0.00;99.90
18777;DHT22;9517;51.174;4.160;2023-03-01T01:48:03;-0.10;99.90
18777;DHT22;9517;51.174;4.160;2023-03-01T01:50:33;-0.30;99.90
18777;DHT22;9517;51.174;4.160;2023-03-01T01:53:07;-0.30;99.90
18777;DHT22;9517;51.174;4.160;2023-03-01T01:55:36;-0.20;99.90
18777;DHT22;9517;51.174;4.160;2023-03-01T01:58:09;-0.20;99.90
18777;DHT22;9517;51.174;4.160;2023-03-01T02:00:38;-0.20;99.90
18777;DHT22;9517;51.174;4.160;2023-03-01T02:03:10;-0.30;99.90
18777;DHT22;9517;51.174;4.160;2023-03-01T02:05:42;-0.20;99.90
18777;DHT22;9517;51.174;4.160;2023-03-01T02:08:12;-0.20;99.90
18777;DHT22;9517;51.174;4.160;2023-03-01T02:10:40;-0.20;99.90
18777;DHT22;9517;51.174;4.160;2023-03-01T02:13:09;-0.30;99.90
18777;DHT22;9517;51.174;4.160;2023-03-01T02:15:38;-0.40;99.90
18777;DHT22;9517;51.174;4.160;2023-03-01T02:18:06;-0.30;99.90
18777;DHT22;9517;51.174;4.160;2023-03-01T02:20:40;-0.30;99.90
18777;DHT22;9517;51.174;4.160;2023-03-01T02:23:11;-0.30;99.90
18777;DHT22;9517;51.174;4.160;2023-03-01T02:25:45;-0.30;99.90
18777;DHT22;9517;51.174;4.160;2023-03-01T02:28:25;-0.40;99.90
18777;DHT22;9517;51.174;4.160;2023-03-01T02:30:53;-0.50;99.90
18777;DHT22;9517;51.174;4.160;2023-03-01T02:33:39;-0.40;99.90
18777;DHT22;9517;51.174;4.160;2023-03-01T02:36:09;-0.30;99.90
18777;DHT22;9517;51.174;4.160;2023-03-01T02:38:39;-0.40;99.90
18777;DHT22;9517;51.174;4.160;2023-03-01T02:41:07;-0.30;99.90
18777;DHT22;9517;51.174;4.160;2023-03-01T02:43:36;-0.30;99.90
18777;DHT22;9517;51.174;4.160;2023-03-01T02:46:05;-0.30;99.90
18777;DHT22;9517;51.174;4.160;2023-03-01T02:48:43;-0.20;99.90
18777;DHT22;9517;51.174;4.160;2023-03-01T02:51:22;-0.20;99.90
18777;DHT22;9517;51.174;4.160;2023-03-01T02:53:59;-0.10;99.90
18777;DHT22;9517;51.174;4.160;2023-03-01T02:56:31;-0.10;99.90
18777;DHT22;9517;51.174;4.160;2023-03-01T02:59:00;-0.20;99.90
18777;DHT22;9517;51.174;4.160;2023-03-01T03:01:28;-0.10;99.90
18777;DHT22;9517;51.174;4.160;2023-03-01T03:04:05;-0.10;99.90
18777;DHT22;9517;51.174;4.160;2023-03-01T03:06:32;-0.10;99.90
18777;DHT22;9517;51.174;4.160;2023-03-01T03:08:59;-0.10;99.90
18777;DHT22;9517;51.174;4.160;2023-03-01T03:11:27;-0.10;99.90
18777;DHT22;9517;51.174;4.160;2023-03-01T03:13:54;-0.30;99.90
18777;DHT22;9517;51.174;4.160;2023-03-01T03:16:23;-0.40;99.90
18777;DHT22;9517;51.174;4.160;2023-03-01T03:18:50;-0.50;99.90
18777;DHT22;9517;51.174;4.160;2023-03-01T03:21:17;-0.40;99.90
18777;DHT22;9517;51.174;4.160;2023-03-01T03:23:44;-0.40;99.90
18777;DHT22;9517;51.174;4.160;2023-03-01T03:26:11;-0.30;99.90
18777;DHT22;9517;51.174;4.160;2023-03-01T03:28:40;-0.40;99.90
18777;DHT22;9517;51.174;4.160;2023-03-01T03:31:08;-0.60;99.90
18777;DHT22;9517;51.174;4.160;2023-03-01T03:33:37;-0.60;99.90
18777;DHT22;9517;51.174;4.160;2023-03-01T03:36:05;-0.50;99.90
18777;DHT22;9517;51.174;4.160;2023-03-01T03:38:32;-0.50;99.90
18777;DHT22;9517;51.174;4.160;2023-03-01T03:41:02;-0.50;99.90
18777;DHT22;9517;51.174;4.160;2023-03-01T03:43:34;-0.60;99.90
18777;DHT22;9517;51.174;4.160;2023-03-01T03:46:01;-0.50;99.90
18777;DHT22;9517;51.174;4.160;2023-03-01T03:48:34;-0.50;99.90
18777;DHT22;9517;51.174;4.160;2023-03-01T03:51:03;-0.40;99.90
18777;DHT22;9517;51.174;4.160;2023-03-01T03:53:31;-0.40;99.90
18777;DHT22;9517;51.174;4.160;2023-03-01T03:55:59;-0.40;99.90
18777;DHT22;9517;51.174;4.160;2023-03-01T03:58:26;-0.40;99.90
18777;DHT22;9517;51.174;4.160;2023-03-01T04:00:55;-0.40;99.90
18777;DHT22;9517;51.174;4.160;2023-03-01T04:03:23;-0.40;99.90
18777;DHT22;9517;51.174;4.160;2023-03-01T04:05:51;-0.50;99.90
18777;DHT22;9517;51.174;4.160;2023-03-01T04:11:43;-0.50;99.90
18777;DHT22;9517;51.174;4.160;2023-03-01T04:14:10;-0.40;99.90
18777;DHT22;9517;51.174;4.160;2023-03-01T04:16:37;-0.50;99.90
18777;DHT22;9517;51.174;4.160;2023-03-01T04:19:04;-0.50;99.90
18777;DHT22;9517;51.174;4.160;2023-03-01T04:21:31;-0.60;99.90
18777;DHT22;9517;51.174;4.160;2023-03-01T04:23:59;-0.70;99.90
18777;DHT22;9517;51.174;4.160;2023-03-01T04:26:27;-0.60;99.90
18777;DHT22;9517;51.174;4.160;2023-03-01T04:28:55;-0.70;99.90
18777;DHT22;9517;51.174;4.160;2023-03-01T04:31:22;-0.60;99.90
18777;DHT22;9517;51.174;4.160;2023-03-01T04:33:51;-0.80;99.90
18777;DHT22;9517;51.174;4.160;2023-03-01T04:36:20;-0.90;99.90
18777;DHT22;9517;51.174;4.160;2023-03-01T04:38:48;-0.90;99.90
18777;DHT22;9517;51.174;4.160;2023-03-01T04:41:17;-0.80;99.90
18777;DHT22;9517;51.174;4.160;2023-03-01T04:43:45;-0.90;99.90
18777;DHT22;9517;51.174;4.160;2023-03-01T04:46:16;-1.00;99.90
18777;DHT22;9517;51.174;4.160;2023-03-01T04:48:46;-1.00;99.90
18777;DHT22;9517;51.174;4.160;2023-03-01T04:51:13;-1.10;99.90
18777;DHT22;9517;51.174;4.160;2023-03-01T04:53:41;-1.00;99.90
18777;DHT22;9517;51.174;4.160;2023-03-01T04:56:09;-1.00;99.90
18777;DHT22;9517;51.174;4.160;2023-03-01T04:58:36;-1.10;99.90
18777;DHT22;9517;51.174;4.160;2023-03-01T05:01:08;-1.10;99.90
18777;DHT22;9517;51.174;4.160;2023-03-01T05:03:42;-1.20;99.90
18777;DHT22;9517;51.174;4.160;2023-03-01T05:06:10;-1.20;99.90
18777;DHT22;9517;51.174;4.160;2023-03-01T05:08:37;-1.10;99.90
18777;DHT22;9517;51.174;4.160;2023-03-01T05:11:05;-1.10;99.90
18777;DHT22;9517;51.174;4.160;2023-03-01T05:13:34;-1.30;99.90
18777;DHT22;9517;51.174;4.160;2023-03-01T05:16:02;-1.30;99.90
18777;DHT22;9517;51.174;4.160;2023-03-01T05:18:33;-1.20;99.90
18777;DHT22;9517;51.174;4.160;2023-03-01T05:21:04;-1.10;99.90
18777;DHT22;9517;51.174;4.160;2023-03-01T05:23:33;-1.00;99.90
18777;DHT22;9517;51.174;4.160;2023-03-01T05:26:01;-1.00;99.90
18777;DHT22;9517;51.174;4.160;2023-03-01T05:28:30;-0.90;99.90
18777;DHT22;9517;51.174;4.160;2023-03-01T05:30:57;-0.80;99.90
18777;DHT22;9517;51.174;4.160;2023-03-01T05:33:25;-0.90;99.90
18777;DHT22;9517;51.174;4.160;2023-03-01T05:35:53;-0.90;99.90
18777;DHT22;9517;51.174;4.160;2023-03-01T05:38:22;-1.00;99.90
18777;DHT22;9517;51.174;4.160;2023-03-01T05:40:49;-1.10;99.90
18777;DHT22;9517;51.174;4.160;2023-03-01T05:43:17;-1.00;99.90
18777;DHT22;9517;51.174;4.160;2023-03-01T05:45:44;-1.00;99.90
18777;DHT22;9517;51.174;4.160;2023-03-01T05:48:12;-1.20;99.90
18777;DHT22;9517;51.174;4.160;2023-03-01T05:50:41;-1.20;99.90
18777;DHT22;9517;51.174;4.160;2023-03-01T05:53:11;-1.20;99.90
18777;DHT22;9517;51.174;4.160;2023-03-01T05:55:40;-1.20;99.90
18777;DHT22;9517;51.174;4.160;2023-03-01T05:58:12;-1.30;99.90
18777;DHT22;9517;51.174;4.160;2023-03-01T06:00:40;-1.50;99.90
18777;DHT22;9517;51.174;4.160;2023-03-01T06:03:10;-1.40;99.90
18777;DHT22;9517;51.174;4.160;2023-03-01T06:05:38;-1.30;99.90
18777;DHT22;9517;51.174;4.160;2023-03-01T06:08:05;-1.30;99.90
18777;DHT22;9517;51.174;4.160;2023-03-01T06:10:32;-1.30;99.90
18777;DHT22;9517;51.174;4.160;2023-03-01T06:13:01;-1.30;99.90
18777;DHT22;9517;51.174;4.160;2023-03-01T06:15:28;-1.30;99.90
18777;DHT22;9517;51.174;4.160;2023-03-01T06:17:56;-1.20;99.90
18777;DHT22;9517;51.174;4.160;2023-03-01T06:20:26;-1.30;99.90
18777;DHT22;9517;51.174;4.160;2023-03-01T06:22:54;-1.30;99.90
18777;DHT22;9517;51.174;4.160;2023-03-01T06:25:23;-1.20;99.90
18777;DHT22;9517;51.174;4.160;2023-03-01T06:27:51;-1.20;99.90
18777;DHT22;9517;51.174;4.160;2023-03-01T06:30:22;-1.10;99.90
18777;DHT22;9517;51.174;4.160;2023-03-01T06:32:49;-1.30;99.90
18777;DHT22;9517;51.174;4.160;2023-03-01T06:35:18;-1.30;99.90
18777;DHT22;9517;51.174;4.160;2023-03-01T06:37:45;-1.20;99.90
18777;DHT22;9517;51.174;4.160;2023-03-01T06:40:14;-1.20;99.90
18777;DHT22;9517;51.174;4.160;2023-03-01T06:42:43;-1.10;99.90
18777;DHT22;9517;51.174;4.160;2023-03-01T06:45:14;-1.10;99.90
18777;DHT22;9517;51.174;4.160;2023-03-01T06:47:43;-1.10;99.90
18777;DHT22;9517;51.174;4.160;2023-03-01T06:50:11;-1.00;99.90
18777;DHT22;9517;51.174;4.160;2023-03-01T06:52:38;-1.10;99.90
18777;DHT22;9517;51.174;4.160;2023-03-01T06:55:06;-1.10;99.90
18777;DHT22;9517;51.174;4.160;2023-03-01T06:57:35;-1.00;99.90
18777;DHT22;9517;51.174;4.160;2023-03-01T07:00:07;-0.90;99.90
18777;DHT22;9517;51.174;4.160;2023-03-01T07:02:34;-0.90;99.90
18777;DHT22;9517;51.174;4.160;2023-03-01T07:05:06;-0.90;99.90
18777;DHT22;9517;51.174;4.160;2023-03-01T07:07:33;-0.90;99.90
18777;DHT22;9517;51.174;4.160;2023-03-01T07:10:02;-0.80;99.90
18777;DHT22;9517;51.174;4.160;2023-03-01T07:12:29;-0.80;99.90
18777;DHT22;9517;51.174;4.160;2023-03-01T07:14:56;-1.00;99.90
18777;DHT22;9517;51.174;4.160;2023-03-01T07:17:24;-1.00;99.90
18777;DHT22;9517;51.174;4.160;2023-03-01T07:19:51;-0.90;99.90
18777;DHT22;9517;51.174;4.160;2023-03-01T07:22:19;-0.60;99.90
18777;DHT22;9517;51.174;4.160;2023-03-01T07:24:46;-0.50;99.90
18777;DHT22;9517;51.174;4.160;2023-03-01T07:27:14;-0.40;99.90
18777;DHT22;9517;51.174;4.160;2023-03-01T07:29:41;-0.50;99.90
18777;DHT22;9517;51.174;4.160;2023-03-01T07:32:08;-0.30;99.90
18777;DHT22;9517;51.174;4.160;2023-03-01T07:34:36;-0.10;99.90
18777;DHT22;9517;51.174;4.160;2023-03-01T07:37:03;-0.10;99.90
18777;DHT22;9517;51.174;4.160;2023-03-01T07:39:32;0.10;99.90
18777;DHT22;9517;51.174;4.160;2023-03-01T07:41:59;0.30;99.90
18777;DHT22;9517;51.174;4.160;2023-03-01T07:44:26;0.50;99.90
18777;DHT22;9517;51.174;4.160;2023-03-01T07:46:53;0.60;99.90
18777;DHT22;9517;51.174;4.160;2023-03-01T07:49:22;0.70;99.90
18777;DHT22;9517;51.174;4.160;2023-03-01T07:51:49;1.00;99.90
18777;DHT22;9517;51.174;4.160;2023-03-01T07:54:16;1.20;99.90
18777;DHT22;9517;51.174;4.160;2023-03-01T07:56:45;1.40;99.90
18777;DHT22;9517;51.174;4.160;2023-03-01T07:59:12;1.60;99.90
18777;DHT22;9517;51.174;4.160;2023-03-01T08:01:39;1.80;99.90
18777;DHT22;9517;51.174;4.160;2023-03-01T08:04:07;1.90;99.90
18777;DHT22;9517;51.174;4.160;2023-03-01T08:06:35;2.00;99.90
18777;DHT22;9517;51.174;4.160;2023-03-01T08:09:06;2.30;99.90
18777;DHT22;9517;51.174;4.160;2023-03-01T08:11:34;2.40;99.90
18777;DHT22;9517;51.174;4.160;2023-03-01T08:14:02;2.60;99.90
18777;DHT22;9517;51.174;4.160;2023-03-01T08:16:29;2.70;99.90
18777;DHT22;9517;51.174;4.160;2023-03-01T08:19:02;2.90;99.90
18777;DHT22;9517;51.174;4.160;2023-03-01T08:21:30;2.80;99.90
18777;DHT22;9517;51.174;4.160;2023-03-01T08:23:57;2.90;99.90
18777;DHT22;9517;51.174;4.160;2023-03-01T08:26:24;3.10;99.90
18777;DHT22;9517;51.174;4.160;2023-03-01T08:28:51;3.20;99.90
18777;DHT22;9517;51.174;4.160;2023-03-01T08:31:22;3.30;99.90
18777;DHT22;9517;51.174;4.160;2023-03-01T08:33:52;3.40;99.90
18777;DHT22;9517;51.174;4.160;2023-03-01T08:36:22;3.50;99.90
18777;DHT22;9517;51.174;4.160;2023-03-01T08:38:49;3.60;99.90
18777;DHT22;9517;51.174;4.160;2023-03-01T08:41:17;3.80;99.90
18777;DHT22;9517;51.174;4.160;2023-03-01T08:43:44;3.80;99.90
18777;DHT22;9517;51.174;4.160;2023-03-01T08:46:12;3.90;99.90
18777;DHT22;9517;51.174;4.160;2023-03-01T08:48:40;3.90;99.90
18777;DHT22;9517;51.174;4.160;2023-03-01T08:51:10;4.20;99.90
18777;DHT22;9517;51.174;4.160;2023-03-01T08:53:38;4.20;99.90
18777;DHT22;9517;51.174;4.160;2023-03-01T08:56:06;4.20;99.90
18777;DHT22;9517;51.174;4.160;2023-03-01T08:58:33;4.20;99.90
18777;DHT22;9517;51.174;4.160;2023-03-01T09:01:00;4.40;99.90
18777;DHT22;9517;51.174;4.160;2023-03-01T09:03:28;4.50;99.90
18777;DHT22;9517;51.174;4.160;2023-03-01T09:06:02;4.70;99.90
18777;DHT22;9517;51.174;4.160;2023-03-01T09:08:30;4.70;99.90
18777;DHT22;9517;51.174;4.160;2023-03-01T09:10:58;4.60;99.90
18777;DHT22;9517;51.174;4.160;2023-03-01T09:13:28;4.50;99.90
18777;DHT22;9517;51.174;4.160;2023-03-01T09:15:56;4.80;99.90
18777;DHT22;9517;51.174;4.160;2023-03-01T09:18:24;5.00;99.90
18777;DHT22;9517;51.174;4.160;2023-03-01T09:20:51;5.10;99.90
18777;DHT22;9517;51.174;4.160;2023-03-01T09:23:21;5.00;99.90
18777;DHT22;9517;51.174;4.160;2023-03-01T09:25:49;5.20;99.90
18777;DHT22;9517;51.174;4.160;2023-03-01T09:28:16;5.30;99.90
18777;DHT22;9517;51.174;4.160;2023-03-01T09:30:43;5.30;99.90
18777;DHT22;9517;51.174;4.160;2023-03-01T09:33:10;5.40;99.90
18777;DHT22;9517;51.174;4.160;2023-03-01T09:35:40;5.60;99.90
18777;DHT22;9517;51.174;4.160;2023-03-01T09:38:11;5.60;99.90
18777;DHT22;9517;51.174;4.160;2023-03-01T09:40:43;5.70;99.90
18777;DHT22;9517;51.174;4.160;2023-03-01T09:43:20;5.80;99.90
18777;DHT22;9517;51.174;4.160;2023-03-01T09:45:50;6.00;99.90
18777;DHT22;9517;51.174;4.160;2023-03-01T09:48:20;5.80;99.90
18777;DHT22;9517;51.174;4.160;2023-03-01T09:50:49;6.00;99.90
18777;DHT22;9517;51.174;4.160;2023-03-01T09:53:20;6.00;99.90
18777;DHT22;9517;51.174;4.160;2023-03-01T09:55:54;6.20;99.90
18777;DHT22;9517;51.174;4.160;2023-03-01T09:58:31;6.30;99.90
18777;DHT22;9517;51.174;4.160;2023-03-01T10:01:10;6.20;99.90
18777;DHT22;9517;51.174;4.160;2023-03-01T10:03:42;6.60;99.90
18777;DHT22;9517;51.174;4.160;2023-03-01T10:06:14;6.80;99.90
18777;DHT22;9517;51.174;4.160;2023-03-01T10:08:46;7.10;99.90
18777;DHT22;9517;51.174;4.160;2023-03-01T10:11:21;7.40;99.90
18777;DHT22;9517;51.174;4.160;2023-03-01T10:13:54;7.50;99.90
18777;DHT22;9517;51.174;4.160;2023-03-01T10:16:27;7.50;99.90
18777;DHT22;9517;51.174;4.160;2023-03-01T10:18:59;7.60;99.90
18777;DHT22;9517;51.174;4.160;2023-03-01T10:21:28;7.60;99.90
18777;DHT22;9517;51.174;4.160;2023-03-01T10:24:07;7.80;99.90
18777;DHT22;9517;51.174;4.160;2023-03-01T10:26:47;7.90;99.90
18777;DHT22;9517;51.174;4.160;2023-03-01T10:29:15;8.10;99.90
18777;DHT22;9517;51.174;4.160;2023-03-01T10:31:44;8.20;99.90
18777;DHT22;9517;51.174;4.160;2023-03-01T10:34:14;8.00;99.90
18777;DHT22;9517;51.174;4.160;2023-03-01T10:36:43;8.30;99.90
18777;DHT22;9517;51.174;4.160;2023-03-01T10:39:14;9.00;99.90
18777;DHT22;9517;51.174;4.160;2023-03-01T10:41:56;9.50;99.90
18777;DHT22;9517;51.174;4.160;2023-03-01T10:44:38;9.80;99.90
18777;DHT22;9517;51.174;4.160;2023-03-01T10:47:14;9.80;99.90
18777;DHT22;9517;51.174;4.160;2023-03-01T10:49:56;10.10;99.90
18777;DHT22;9517;51.174;4.160;2023-03-01T10:52:25;9.90;99.90
18777;DHT22;9517;51.174;4.160;2023-03-01T10:54:56;9.60;99.90
18777;DHT22;9517;51.174;4.160;2023-03-01T10:57:40;9.50;99.90
18777;DHT22;9517;51.174;4.160;2023-03-01T11:00:25;9.60;99.90
18777;DHT22;9517;51.174;4.160;2023-03-01T11:03:12;10.20;99.90
18777;DHT22;9517;51.174;4.160;2023-03-01T11:05:55;10.20;99.90
18777;DHT22;9517;51.174;4.160;2023-03-01T11:08:39;10.40;99.90
18777;DHT22;9517;51.174;4.160;2023-03-01T11:11:23;11.20;99.90
18777;DHT22;9517;51.174;4.160;2023-03-01T11:13:55;11.10;99.90
18777;DHT22;9517;51.174;4.160;2023-03-01T11:16:25;11.30;99.90
18777;DHT22;9517;51.174;4.160;2023-03-01T11:18:58;12.00;99.90
18777;DHT22;9517;51.174;4.160;2023-03-01T11:21:28;12.50;99.90
18777;DHT22;9517;51.174;4.160;2023-03-01T11:23:57;13.40;99.90
18777;DHT22;9517;51.174;4.160;2023-03-01T11:26:28;14.40;99.90
18777;DHT22;9517;51.174;4.160;2023-03-01T11:29:02;14.80;99.90
18777;DHT22;9517;51.174;4.160;2023-03-01T11:31:31;14.80;99.50
18777;DHT22;9517;51.174;4.160;2023-03-01T11:34:05;15.30;98.30
18777;DHT22;9517;51.174;4.160;2023-03-01T11:36:35;15.70;99.60
18777;DHT22;9517;51.174;4.160;2023-03-01T11:39:15;16.90;96.50
18777;DHT22;9517;51.174;4.160;2023-03-01T11:41:48;17.50;96.20
18777;DHT22;9517;51.174;4.160;2023-03-01T11:44:25;18.10;94.20
18777;DHT22;9517;51.174;4.160;2023-03-01T11:50:14;17.70;92.80
18777;DHT22;9517;51.174;4.160;2023-03-01T11:52:52;17.10;91.40
18777;DHT22;9517;51.174;4.160;2023-03-01T11:55:41;16.60;91.70
18777;DHT22;9517;51.174;4.160;2023-03-01T11:58:43;17.40;90.80
18777;DHT22;9517;51.174;4.160;2023-03-01T12:01:25;18.10;91.20
18777;DHT22;9517;51.174;4.160;2023-03-01T12:04:11;18.80;87.50
18777;DHT22;9517;51.174;4.160;2023-03-01T12:06:50;18.30;86.30
18777;DHT22;9517;51.174;4.160;2023-03-01T12:09:31;18.20;87.20
18777;DHT22;9517;51.174;4.160;2023-03-01T12:12:18;18.10;86.00
18777;DHT22;9517;51.174;4.160;2023-03-01T12:15:04;18.20;84.70
18777;DHT22;9517;51.174;4.160;2023-03-01T12:17:46;16.60;86.00
18777;DHT22;9517;51.174;4.160;2023-03-01T12:20:25;14.70;88.20
18777;DHT22;9517;51.174;4.160;2023-03-01T12:23:09;14.80;91.80
18777;DHT22;9517;51.174;4.160;2023-03-01T12:25:45;16.00;89.70
18777;DHT22;9517;51.174;4.160;2023-03-01T12:28:31;16.60;88.30
18777;DHT22;9517;51.174;4.160;2023-03-01T12:31:23;16.70;87.10
18777;DHT22;9517;51.174;4.160;2023-03-01T12:34:06;17.40;89.50
18777;DHT22;9517;51.174;4.160;2023-03-01T12:36:48;17.40;86.50
18777;DHT22;9517;51.174;4.160;2023-03-01T12:39:38;17.50;86.90
18777;DHT22;9517;51.174;4.160;2023-03-01T12:42:15;17.60;87.20
18777;DHT22;9517;51.174;4.160;2023-03-01T12:47:55;17.40;86.00
18777;DHT22;9517;51.174;4.160;2023-03-01T12:50:29;16.70;87.70
18777;DHT22;9517;51.174;4.160;2023-03-01T12:52:59;16.10;85.90
18777;DHT22;9517;51.174;4.160;2023-03-01T12:55:29;16.60;89.10
18777;DHT22;9517;51.174;4.160;2023-03-01T12:58:05;16.40;88.70
18777;DHT22;9517;51.174;4.160;2023-03-01T13:00:40;16.40;85.40
18777;DHT22;9517;51.174;4.160;2023-03-01T13:03:19;16.70;85.40
18777;DHT22;9517;51.174;4.160;2023-03-01T13:06:02;16.70;86.40
18777;DHT22;9517;51.174;4.160;2023-03-01T13:08:38;16.20;84.70
18777;DHT22;9517;51.174;4.160;2023-03-01T13:11:16;16.20;86.60
18777;DHT22;9517;51.174;4.160;2023-03-01T13:13:44;16.80;85.60
18777;DHT22;9517;51.174;4.160;2023-03-01T13:16:39;16.70;83.50
18777;DHT22;9517;51.174;4.160;2023-03-01T13:19:12;17.20;84.60
18777;DHT22;9517;51.174;4.160;2023-03-01T13:21:43;18.00;83.50
18777;DHT22;9517;51.174;4.160;2023-03-01T13:24:27;18.60;82.40
18777;DHT22;9517;51.174;4.160;2023-03-01T13:27:10;18.70;79.40
18777;DHT22;9517;51.174;4.160;2023-03-01T13:29:48;17.90;82.20
18777;DHT22;9517;51.174;4.160;2023-03-01T13:32:20;18.50;79.40
18777;DHT22;9517;51.174;4.160;2023-03-01T13:34:52;17.10;82.60
18777;DHT22;9517;51.174;4.160;2023-03-01T13:37:28;17.80;81.60
18777;DHT22;9517;51.174;4.160;2023-03-01T13:39:58;16.80;81.30
18777;DHT22;9517;51.174;4.160;2023-03-01T13:42:40;16.50;84.70
18777;DHT22;9517;51.174;4.160;2023-03-01T13:45:21;16.70;85.90
18777;DHT22;9517;51.174;4.160;2023-03-01T13:47:54;16.40;81.20
18777;DHT22;9517;51.174;4.160;2023-03-01T13:50:25;15.30;82.00
18777;DHT22;9517;51.174;4.160;2023-03-01T13:52:58;15.90;84.90
18777;DHT22;9517;51.174;4.160;2023-03-01T13:55:34;16.00;82.20
18777;DHT22;9517;51.174;4.160;2023-03-01T13:58:12;15.90;83.70
18777;DHT22;9517;51.174;4.160;2023-03-01T14:00:41;16.40;83.50
18777;DHT22;9517;51.174;4.160;2023-03-01T14:03:14;16.30;81.20
18777;DHT22;9517;51.174;4.160;2023-03-01T14:05:44;16.00;83.80
18777;DHT22;9517;51.174;4.160;2023-03-01T14:08:24;15.40;84.80
18777;DHT22;9517;51.174;4.160;2023-03-01T14:11:29;15.40;84.40
18777;DHT22;9517;51.174;4.160;2023-03-01T14:14:25;15.80;84.80
18777;DHT22;9517;51.174;4.160;2023-03-01T14:17:04;16.40;84.30
18777;DHT22;9517;51.174;4.160;2023-03-01T14:19:36;15.60;85.60
18777;DHT22;9517;51.174;4.160;2023-03-01T14:22:14;15.60;85.30
18777;DHT22;9517;51.174;4.160;2023-03-01T14:24:48;16.00;85.20
18777;DHT22;9517;51.174;4.160;2023-03-01T14:27:17;16.10;82.90
18777;DHT22;9517;51.174;4.160;2023-03-01T14:29:54;16.60;84.20
18777;DHT22;9517;51.174;4.160;2023-03-01T14:32:23;16.50;85.10
18777;DHT22;9517;51.174;4.160;2023-03-01T14:34:51;16.40;83.50
18777;DHT22;9517;51.174;4.160;2023-03-01T14:37:21;16.20;82.50
18777;DHT22;9517;51.174;4.160;2023-03-01T14:39:50;15.50;84.50
18777;DHT22;9517;51.174;4.160;2023-03-01T14:42:18;14.60;86.30
18777;DHT22;9517;51.174;4.160;2023-03-01T14:44:48;14.90;87.40
18777;DHT22;9517;51.174;4.160;2023-03-01T14:47:23;15.10;88.00
18777;DHT22;9517;51.174;4.160;2023-03-01T14:49:57;15.40;87.50
18777;DHT22;9517;51.174;4.160;2023-03-01T14:52:31;15.40;86.90
18777;DHT22;9517;51.174;4.160;2023-03-01T14:55:03;16.00;86.00
18777;DHT22;9517;51.174;4.160;2023-03-01T14:57:31;16.20;90.20
18777;DHT22;9517;51.174;4.160;2023-03-01T15:00:00;16.10;85.30
18777;DHT22;9517;51.174;4.160;2023-03-01T15:02:31;15.40;84.80
18777;DHT22;9517;51.174;4.160;2023-03-01T15:05:01;15.00;86.80
18777;DHT22;9517;51.174;4.160;2023-03-01T15:07:32;14.80;87.70
18777;DHT22;9517;51.174;4.160;2023-03-01T15:10:04;15.50;89.00
18777;DHT22;9517;51.174;4.160;2023-03-01T15:12:39;15.50;85.70
18777;DHT22;9517;51.174;4.160;2023-03-01T15:15:21;15.50;86.50
18777;DHT22;9517;51.174;4.160;2023-03-01T15:17:53;15.40;84.70
18777;DHT22;9517;51.174;4.160;2023-03-01T15:20:24;15.40;88.30
18777;DHT22;9517;51.174;4.160;2023-03-01T15:22:53;15.20;86.90
18777;DHT22;9517;51.174;4.160;2023-03-01T15:25:24;15.30;87.80
18777;DHT22;9517;51.174;4.160;2023-03-01T15:27:54;15.00;87.70
18777;DHT22;9517;51.174;4.160;2023-03-01T15:30:23;15.30;87.50
18777;DHT22;9517;51.174;4.160;2023-03-01T15:33:17;15.20;87.40
18777;DHT22;9517;51.174;4.160;2023-03-01T15:35:47;15.20;89.30
18777;DHT22;9517;51.174;4.160;2023-03-01T15:38:26;15.30;87.90
18777;DHT22;9517;51.174;4.160;2023-03-01T15:40:56;15.50;87.30
18777;DHT22;9517;51.174;4.160;2023-03-01T15:43:44;15.30;85.80
18777;DHT22;9517;51.174;4.160;2023-03-01T15:46:21;14.60;87.40
18777;DHT22;9517;51.174;4.160;2023-03-01T15:48:52;13.60;89.90
18777;DHT22;9517;51.174;4.160;2023-03-01T15:51:27;13.70;90.00
18777;DHT22;9517;51.174;4.160;2023-03-01T15:53:56;13.70;90.20
18777;DHT22;9517;51.174;4.160;2023-03-01T15:56:26;13.30;90.40
18777;DHT22;9517;51.174;4.160;2023-03-01T15:58:57;13.00;90.60
18777;DHT22;9517;51.174;4.160;2023-03-01T16:01:25;13.40;91.20
18777;DHT22;9517;51.174;4.160;2023-03-01T16:03:52;13.40;91.10
18777;DHT22;9517;51.174;4.160;2023-03-01T16:06:20;13.00;90.30
18777;DHT22;9517;51.174;4.160;2023-03-01T16:08:47;13.20;92.10
18777;DHT22;9517;51.174;4.160;2023-03-01T16:11:17;13.40;91.10
18777;DHT22;9517;51.174;4.160;2023-03-01T16:13:46;13.40;90.90
18777;DHT22;9517;51.174;4.160;2023-03-01T16:16:14;13.10;90.30
18777;DHT22;9517;51.174;4.160;2023-03-01T16:18:43;12.80;90.60
18777;DHT22;9517;51.174;4.160;2023-03-01T16:21:15;12.70;91.40
18777;DHT22;9517;51.174;4.160;2023-03-01T16:23:44;12.40;91.90
18777;DHT22;9517;51.174;4.160;2023-03-01T16:26:11;12.10;92.30